Terminal Aerodrome Forecast
Issued by NWS

Home | Current Version | Previous Version | Text Only | Print | Product List | Glossary On
Versions: 1 2 3 4 5 6 7 8 9 10 11 12
170
FTUS43 KMPX 212339
TAFAXN
TAF
KAXN 212339Z 2200/2224 02007KT P6SM OVC100
     FM220600 03011KT P6SM OVC030
     FM220900 03013G21KT P6SM OVC015
     FM221200 03014G22KT P6SM OVC008
     FM221800 02015G23KT P6SM BKN010=

USA.gov is the U.S. government's official web portal to all federal, state and local government web resources and services.